Terminal Aerodrome Forecast
Issued by NWS

Home | Current Version | Previous Version | Text Only | Print | Product List | Glossary On
Versions: 1 2 3 4 5 6 7 8 9 10 11 12 13 14 15 16 17 18 19 20 21 22 23
192
FTAK31 PAJN 201740
TAFASI
TAF
PASI 201740Z 2018/2118 14009KT P6SM VCSH FEW035 SCT045
     FM202100 21006KT P6SM VCSH BKN040=

USA.gov is the U.S. government's official web portal to all federal, state and local government web resources and services.